createdAt,value
2023-03-07T00:00:39.429Z,26.2
2023-03-07T00:05:39.901Z,26.6
2023-03-07T00:10:40.448Z,28.6
2023-03-07T00:15:40.940Z,29.2
2023-03-07T00:20:41.443Z,30.7
2023-03-07T00:25:42.293Z,29.9
2023-03-07T00:30:42.734Z,32.8
2023-03-07T00:35:43.247Z,32.5
2023-03-07T00:40:43.682Z,31.1
2023-03-07T00:45:44.310Z,32.4
2023-03-07T00:50:44.753Z,31.3
2023-03-07T00:55:45.593Z,27.6
2023-03-07T01:00:46.056Z,25.2
2023-03-07T01:05:46.527Z,22.9
2023-03-07T01:10:47.016Z,21.8
2023-03-07T01:15:47.485Z,20.6
2023-03-07T01:20:47.943Z,22.3
2023-03-07T01:25:48.459Z,22.5
2023-03-07T01:30:48.884Z,23.4
2023-03-07T01:35:49.408Z,25.6
2023-03-07T01:40:50.545Z,26.9
2023-03-07T01:45:51.275Z,28
2023-03-07T01:50:51.816Z,28.1
2023-03-07T01:55:52.479Z,26.8
2023-03-07T02:00:53.141Z,27.1
2023-03-07T02:05:53.676Z,27.6
2023-03-07T02:10:54.348Z,29.3
2023-03-07T02:15:54.805Z,28.9
2023-03-07T02:20:55.566Z,31.6
2023-03-07T02:25:56.149Z,30
2023-03-07T02:30:56.689Z,30
2023-03-07T02:35:57.306Z,29.3
2023-03-07T02:40:57.970Z,31.2
2023-03-07T02:45:58.840Z,31.2
2023-03-07T02:50:59.302Z,36.6
2023-03-07T02:56:02.316Z,30.6
2023-03-07T03:01:02.715Z,32
2023-03-07T03:11:03.982Z,32.5
2023-03-07T03:16:07.549Z,32.4
2023-03-07T03:21:08.245Z,32
2023-03-07T03:26:08.612Z,33.3
2023-03-07T03:31:09.349Z,36.5
2023-03-07T03:36:09.946Z,36.9
2023-03-07T03:41:10.483Z,38.5
2023-03-07T03:46:11.135Z,39.1
2023-03-07T03:51:11.895Z,40.2
2023-03-07T03:56:12.441Z,39.4
2023-03-07T04:01:12.909Z,84.1
2023-03-07T04:06:13.344Z,45.2
2023-03-07T04:11:13.999Z,43
2023-03-07T04:16:14.564Z,41.6
2023-03-07T04:21:15.168Z,39.6
2023-03-07T04:26:15.949Z,40.8
2023-03-07T04:31:16.426Z,40.1
2023-03-07T04:36:16.907Z,42.7
2023-03-07T04:41:17.480Z,41.2
2023-03-07T04:46:18.167Z,43.2
2023-03-07T04:51:18.629Z,39.3
2023-03-07T04:56:19.239Z,41.4
2023-03-07T05:01:20.136Z,37.8
2023-03-07T05:06:20.894Z,38.9
2023-03-07T05:11:21.727Z,42.2
2023-03-07T05:16:25.324Z,38
2023-03-07T05:21:26.057Z,39.6
2023-03-07T05:26:28.889Z,39.6
2023-03-07T05:31:29.574Z,38.4
2023-03-07T05:36:30.074Z,41
2023-03-07T05:41:30.938Z,37.8
2023-03-07T05:46:31.665Z,69.3
2023-03-07T05:51:33.447Z,48.6
2023-03-07T05:56:34.016Z,55.4
2023-03-07T06:01:34.778Z,33.5
2023-03-07T06:06:35.965Z,34.4
2023-03-07T06:11:36.703Z,32.4
2023-03-07T06:16:37.129Z,33.9
2023-03-07T06:21:37.627Z,35.4
2023-03-07T06:26:38.673Z,33.5
2023-03-07T06:31:39.312Z,35.2
2023-03-07T06:36:39.755Z,33.6
2023-03-07T06:41:40.494Z,39.5
2023-03-07T06:46:41.117Z,33.7
2023-03-07T06:51:41.558Z,32.7
2023-03-07T06:56:45.535Z,70.5
2023-03-07T07:01:47.127Z,33.8
2023-03-07T07:06:47.936Z,31.5
2023-03-07T07:11:48.332Z,32.3
2023-03-07T07:16:48.909Z,31.3
2023-03-07T07:21:49.523Z,30.5
2023-03-07T07:26:50.105Z,26.6
2023-03-07T07:31:50.995Z,26.8
2023-03-07T07:36:51.564Z,59.5
2023-03-07T07:41:52.072Z,24.3
2023-03-07T07:46:52.772Z,23.3
2023-03-07T07:51:53.151Z,22.4
2023-03-07T07:56:53.825Z,20.2
2023-03-07T08:01:54.486Z,20.5
2023-03-07T08:06:54.956Z,19.7
2023-03-07T08:16:56.134Z,20.1
2023-03-07T08:21:56.606Z,19.1
2023-03-07T08:31:57.890Z,19.8
2023-03-07T08:36:58.252Z,17.6
2023-03-07T08:41:58.952Z,18
2023-03-07T08:46:59.497Z,16.6
2023-03-07T08:52:01.212Z,16.7
2023-03-07T08:57:01.852Z,22.6
2023-03-07T09:02:02.513Z,16.2
2023-03-07T09:07:02.977Z,17.2
2023-03-07T09:12:03.758Z,15.8
2023-03-07T09:17:04.285Z,16.6
2023-03-07T09:22:04.864Z,16.5
2023-03-07T09:27:06.281Z,16.2
2023-03-07T09:32:06.825Z,16
2023-03-07T09:37:07.411Z,17.1
2023-03-07T09:42:08.318Z,16
2023-03-07T09:47:09.011Z,16.8
2023-03-07T09:52:11.197Z,17.6
2023-03-07T09:57:11.663Z,14.7
2023-03-07T10:02:12.061Z,15.2
2023-03-07T10:07:12.559Z,14.4
2023-03-07T10:12:12.961Z,14
2023-03-07T10:17:13.581Z,13.9
2023-03-07T10:22:14.154Z,14.1
2023-03-07T10:27:16.818Z,14.5
2023-03-07T10:32:17.567Z,14.1
2023-03-07T10:37:18.147Z,13.6
2023-03-07T10:42:18.761Z,13.2
2023-03-07T10:47:19.537Z,13.7
2023-03-07T10:52:19.915Z,12.7
2023-03-07T10:57:20.361Z,15.2
2023-03-07T11:02:20.820Z,15.8
2023-03-07T11:07:21.271Z,32.8
2023-03-07T11:12:21.957Z,15.7
2023-03-07T11:17:22.477Z,15.7
2023-03-07T11:22:22.908Z,15.2
2023-03-07T11:27:23.689Z,15.3
2023-03-07T11:32:24.177Z,15.3
2023-03-07T11:37:24.745Z,115.4
2023-03-07T11:42:25.474Z,205.7
2023-03-07T11:47:26.412Z,97.7
2023-03-07T11:52:27.907Z,36.5
2023-03-07T11:57:28.416Z,16.9
2023-03-07T12:02:29.245Z,19.4
2023-03-07T12:07:32.388Z,15.7
2023-03-07T12:12:33.039Z,20.2
2023-03-07T12:17:33.428Z,13.7
2023-03-07T12:22:34.393Z,11.9
2023-03-07T12:27:35.034Z,12
2023-03-07T12:32:36.199Z,12
2023-03-07T12:37:36.708Z,11.1
2023-03-07T12:42:37.346Z,21.6
2023-03-07T12:47:38.122Z,13.3
2023-03-07T12:52:38.629Z,13
2023-03-07T12:57:39.182Z,20.1
2023-03-07T13:02:42.603Z,15.1
2023-03-07T13:07:43.065Z,26.2
2023-03-07T13:12:43.407Z,14.2
2023-03-07T13:17:43.852Z,13.5
2023-03-07T13:22:44.305Z,24.6
2023-03-07T13:27:44.842Z,16.5
2023-03-07T13:32:45.190Z,14
2023-03-07T13:37:45.675Z,14.7
2023-03-07T13:42:46.176Z,14.5
2023-03-07T13:47:46.769Z,14.6
2023-03-07T13:52:47.180Z,11.9
2023-03-07T13:57:47.634Z,13.4
2023-03-07T14:02:48.151Z,12.5
2023-03-07T14:07:48.599Z,22.6
2023-03-07T14:12:49.613Z,14.1
2023-03-07T14:17:50.094Z,15.3
2023-03-07T14:22:50.571Z,14.8
2023-03-07T14:27:51.086Z,18.2
2023-03-07T14:32:51.557Z,20.7
2023-03-07T14:37:51.921Z,28.1
2023-03-07T14:42:52.368Z,31.5
2023-03-07T14:47:53.066Z,29.7
2023-03-07T14:52:53.622Z,21.7
2023-03-07T14:57:54.422Z,16.2
2023-03-07T15:02:54.844Z,15.2
2023-03-07T15:07:55.252Z,17.3
2023-03-07T15:12:55.990Z,29.2
2023-03-07T15:17:56.543Z,17.7
2023-03-07T15:22:57.205Z,14.8
2023-03-07T15:27:57.846Z,13.5
2023-03-07T15:32:58.336Z,16.5
2023-03-07T15:37:58.789Z,31.5
2023-03-07T15:42:59.844Z,70.9
2023-03-07T15:48:00.492Z,199.2
2023-03-07T15:53:00.954Z,241.2
2023-03-07T15:58:01.494Z,257.7
2023-03-07T16:03:02.095Z,130.1
2023-03-07T16:08:02.548Z,65.2
2023-03-07T16:13:03.539Z,32.1
2023-03-07T16:18:04.106Z,17.1
2023-03-07T16:23:04.636Z,13.8
2023-03-07T16:28:05.524Z,12.4
2023-03-07T16:33:05.974Z,12.2
2023-03-07T16:38:06.352Z,12
2023-03-07T16:43:06.888Z,12.1
2023-03-07T16:48:07.993Z,12.5
2023-03-07T16:53:08.560Z,11.9
2023-03-07T16:58:11.782Z,12.4
2023-03-07T17:03:12.249Z,12.9
2023-03-07T17:08:12.711Z,13.5
2023-03-07T17:13:13.379Z,13.7
2023-03-07T17:18:13.890Z,14.6
2023-03-07T17:23:14.464Z,16.1
2023-03-07T17:28:14.989Z,15.3
2023-03-07T17:33:15.398Z,14.9
2023-03-07T17:38:15.890Z,13.2
2023-03-07T17:43:16.911Z,13.9
2023-03-07T17:48:17.498Z,14.1
2023-03-07T17:53:18.029Z,14.6
2023-03-07T17:58:18.867Z,15.2
2023-03-07T18:03:19.627Z,16.1
2023-03-07T18:08:20.124Z,16.1
2023-03-07T18:13:20.909Z,14.7
2023-03-07T18:18:21.385Z,14.6
2023-03-07T18:23:21.878Z,14.8
2023-03-07T18:28:22.410Z,14.9
2023-03-07T18:33:22.969Z,15.4
2023-03-07T18:38:23.635Z,15.3
2023-03-07T18:43:24.482Z,14.9
2023-03-07T18:48:25.371Z,16.5
2023-03-07T18:53:25.878Z,15.8
2023-03-07T18:58:26.721Z,16.1
2023-03-07T19:03:27.938Z,15.5
2023-03-07T19:08:28.590Z,16.4
2023-03-07T19:13:29.260Z,16.2
2023-03-07T19:18:29.760Z,15.7
2023-03-07T19:23:30.287Z,15.6
2023-03-07T19:28:30.793Z,16.6
2023-03-07T19:33:31.378Z,16.8
2023-03-07T19:38:32.033Z,16.7
2023-03-07T19:43:32.555Z,17.4
2023-03-07T19:48:33.242Z,16.9
2023-03-07T19:53:33.743Z,16.6
2023-03-07T19:58:34.316Z,17.6
2023-03-07T20:03:34.772Z,17.6
2023-03-07T20:08:35.511Z,18.4
2023-03-07T20:13:36.103Z,18.3
2023-03-07T20:18:36.639Z,18.5
2023-03-07T20:23:37.146Z,19.6
2023-03-07T20:28:37.992Z,18.6
2023-03-07T20:33:38.593Z,17.7
2023-03-07T20:38:39.023Z,18.5
2023-03-07T20:43:39.559Z,19.6
2023-03-07T20:48:40.217Z,20.1
2023-03-07T20:53:40.675Z,20.7
2023-03-07T20:58:41.513Z,21.1
2023-03-07T21:03:42.109Z,22.1
2023-03-07T21:08:42.878Z,21.3
2023-03-07T21:13:43.688Z,23.9
2023-03-07T21:18:44.229Z,23.3
2023-03-07T21:23:44.799Z,23
2023-03-07T21:28:45.375Z,24.9
2023-03-07T21:33:45.810Z,24
2023-03-07T21:38:46.360Z,26.8
2023-03-07T21:43:47.010Z,30.5
2023-03-07T21:48:47.610Z,28.4
2023-03-07T21:53:48.056Z,32.4
2023-03-07T21:58:48.610Z,27.3
2023-03-07T22:03:49.224Z,26.6
2023-03-07T22:08:49.791Z,26.1
2023-03-07T22:13:50.419Z,25.5
2023-03-07T22:18:50.952Z,23.1
2023-03-07T22:23:51.353Z,22.3
2023-03-07T22:28:51.926Z,21.8
2023-03-07T22:33:52.446Z,21
2023-03-07T22:38:53.211Z,20.6
2023-03-07T22:43:53.820Z,20.4
2023-03-07T22:48:54.366Z,19.9
2023-03-07T22:53:54.967Z,19.8
2023-03-07T22:58:55.521Z,21.5
2023-03-07T23:03:56.012Z,20.5
2023-03-07T23:08:56.608Z,19.2
2023-03-07T23:13:57.513Z,19.4
2023-03-07T23:18:57.985Z,19.6
2023-03-07T23:24:01.105Z,20.2
2023-03-07T23:29:01.576Z,19.1
2023-03-07T23:34:02.033Z,18.6
2023-03-07T23:39:02.579Z,18.6
2023-03-07T23:44:03.147Z,18.5
2023-03-07T23:49:03.565Z,18.7
2023-03-07T23:54:04.026Z,17.5
2023-03-07T23:59:04.483Z,17.8
